Time;durP1;ratioP1;P1;durP2;ratioP2;P2;SDS_P1;SDS_P2;PMS_P1;PMS_P2;Temp;Humidity;BMP_temperature;BMP_pressure;BME280_temperature;BME280_humidity;BME280_pressure;Samples;Min_cycle;Max_cycle;Signal;HPM_P1;HPM_P2
2022/04/08 00:01:26;;;;;;;8.63;1.92;;;5.70;99.90;;;;;;5099919;28;20039;-77
2022/04/08 00:03:55;;;;;;;9.03;1.23;;;5.60;99.90;;;;;;5103023;28;20068;-75
2022/04/08 00:06:21;;;;;;;5.18;1.15;;;5.60;99.90;;;;;;5100308;28;20340;-76
2022/04/08 00:08:48;;;;;;;3.92;1.15;;;5.60;99.90;;;;;;5104297;28;20641;-76
2022/04/08 00:11:13;;;;;;;3.97;1.50;;;5.50;99.90;;;;;;5102876;28;20486;-76
2022/04/08 00:13:40;;;;;;;1.52;0.50;;;5.40;99.90;;;;;;5105297;28;20050;-76
2022/04/08 00:16:09;;;;;;;5.13;1.30;;;5.20;99.90;;;;;;5108635;28;20039;-76
2022/04/08 00:18:36;;;;;;;4.00;1.60;;;5.20;99.90;;;;;;5101293;28;20231;-75
2022/04/08 00:21:03;;;;;;;4.78;2.10;;;5.10;99.90;;;;;;5098308;28;20402;-77
2022/04/08 00:23:29;;;;;;;5.35;1.63;;;5.10;99.90;;;;;;5101716;28;20078;-76
2022/04/08 00:25:55;;;;;;;5.10;1.15;;;5.10;99.90;;;;;;5108106;27;20079;-76
2022/04/08 00:28:20;;;;;;;4.57;1.40;;;5.10;99.90;;;;;;5107520;27;20092;-76
2022/04/08 00:30:46;;;;;;;9.20;1.52;;;5.00;99.90;;;;;;5105417;27;20047;-76
2022/04/08 00:33:11;;;;;;;9.65;1.88;;;5.00;99.90;;;;;;5109089;28;20054;-75
2022/04/08 00:35:37;;;;;;;10.63;1.08;;;5.10;99.90;;;;;;5107485;28;20046;-75
2022/04/08 00:38:03;;;;;;;5.85;1.52;;;5.00;99.90;;;;;;5109680;27;20043;-75
2022/04/08 00:40:28;;;;;;;3.00;1.00;;;5.10;99.90;;;;;;5110094;28;20643;-74
2022/04/08 00:42:54;;;;;;;10.45;2.22;;;5.00;99.90;;;;;;5110463;27;20039;-75
2022/04/08 00:45:20;;;;;;;11.88;2.13;;;5.00;99.90;;;;;;5105085;27;20400;-75
2022/04/08 00:47:45;;;;;;;12.32;2.25;;;5.00;99.90;;;;;;5117420;27;20487;-76
2022/04/08 00:50:12;;;;;;;8.43;1.02;;;4.90;99.90;;;;;;5116109;27;20036;-76
2022/04/08 00:52:41;;;;;;;6.05;1.55;;;4.80;99.90;;;;;;5113561;27;20043;-75
2022/04/08 00:55:08;;;;;;;7.10;1.40;;;4.50;99.90;;;;;;5103621;28;20478;-76
2022/04/08 00:57:34;;;;;;;5.90;1.83;;;4.50;99.90;;;;;;5109979;28;20139;-75
2022/04/08 01:00:07;;;;;;;12.13;1.73;;;4.40;99.90;;;;;;5107593;28;20544;-75
2022/04/08 01:02:33;;;;;;;7.25;2.10;;;4.40;99.90;;;;;;5103005;27;20035;-76
2022/04/08 01:04:58;;;;;;;13.10;3.40;;;4.40;99.90;;;;;;5092435;28;20047;-75
2022/04/08 01:07:24;;;;;;;9.55;1.92;;;4.40;99.90;;;;;;5104958;27;20040;-75
2022/04/08 01:09:52;;;;;;;8.45;2.22;;;4.50;99.90;;;;;;5106825;28;20048;-75
2022/04/08 01:12:18;;;;;;;8.20;2.20;;;4.40;99.90;;;;;;5108894;28;20030;-75
2022/04/08 01:14:43;;;;;;;12.90;1.40;;;4.50;99.90;;;;;;5110213;27;20094;-76
2022/04/08 01:17:09;;;;;;;6.25;2.22;;;4.50;99.90;;;;;;5104958;27;20071;-76
2022/04/08 01:19:34;;;;;;;12.50;2.20;;;4.50;99.90;;;;;;5101938;28;20417;-76
2022/04/08 01:22:00;;;;;;;6.35;2.10;;;4.50;99.90;;;;;;5102564;28;20111;-76
2022/04/08 01:24:28;;;;;;;11.85;1.40;;;4.60;99.90;;;;;;5100926;28;20058;-75
2022/04/08 01:26:54;;;;;;;9.75;1.60;;;4.50;99.90;;;;;;5108270;27;20549;-75
2022/04/08 01:29:20;;;;;;;14.00;1.38;;;4.50;99.90;;;;;;5107536;27;20110;-74
2022/04/08 01:31:45;;;;;;;6.80;1.73;;;4.50;99.90;;;;;;5106173;28;20451;-75
2022/04/08 01:34:14;;;;;;;12.32;1.77;;;4.50;99.90;;;;;;5102376;28;20051;-74
2022/04/08 01:36:40;;;;;;;20.92;3.22;;;4.60;99.90;;;;;;5105114;28;20040;-75
2022/04/08 01:39:06;;;;;;;13.88;2.63;;;4.50;99.90;;;;;;5089050;27;20920;-75
2022/04/08 01:41:31;;;;;;;9.98;2.58;;;4.60;99.90;;;;;;5095532;28;20091;-75
2022/04/08 01:44:00;;;;;;;8.82;1.52;;;4.60;99.90;;;;;;5101193;28;20050;-75
2022/04/08 01:46:26;;;;;;;14.45;1.90;;;4.50;99.90;;;;;;5097769;28;20074;-75
2022/04/08 01:48:54;;;;;;;15.70;2.33;;;4.50;99.90;;;;;;5100797;28;20031;-75
2022/04/08 01:51:21;;;;;;;13.38;3.13;;;4.50;99.90;;;;;;5097309;28;20068;-75
2022/04/08 01:53:47;;;;;;;12.73;1.73;;;4.50;99.90;;;;;;5105200;28;20079;-75
2022/04/08 01:56:13;;;;;;;9.60;2.83;;;4.50;99.90;;;;;;5104865;28;20074;-75
2022/04/08 01:58:39;;;;;;;28.65;4.47;;;4.50;99.90;;;;;;5106249;28;20092;-75
2022/04/08 02:01:04;;;;;;;15.40;2.70;;;4.50;99.90;;;;;;5107107;28;20039;-75
2022/04/08 02:03:30;;;;;;;13.07;1.55;;;4.50;99.90;;;;;;5104220;28;20184;-74
2022/04/08 02:05:55;;;;;;;11.27;3.13;;;4.50;99.90;;;;;;5104775;28;20044;-75
2022/04/08 02:08:21;;;;;;;16.13;2.72;;;4.50;99.90;;;;;;5104215;28;20044;-75
2022/04/08 02:10:47;;;;;;;15.35;3.20;;;4.50;99.90;;;;;;5103519;28;20436;-75
2022/04/08 02:13:12;;;;;;;24.95;4.15;;;4.40;99.90;;;;;;5103161;28;20494;-74
2022/04/08 02:15:39;;;;;;;13.35;2.85;;;4.50;99.90;;;;;;5099473;27;20418;-75
2022/04/08 02:18:05;;;;;;;17.98;2.72;;;4.60;99.90;;;;;;5097589;28;20402;-75
2022/04/08 02:20:31;;;;;;;15.68;3.28;;;4.60;99.90;;;;;;5088122;28;20065;-75
2022/04/08 02:22:59;;;;;;;8.32;2.05;;;4.40;99.90;;;;;;5094039;28;20044;-75
2022/04/08 02:25:26;;;;;;;9.05;2.85;;;4.40;99.90;;;;;;5099142;28;20502;-76
2022/04/08 02:27:52;;;;;;;12.50;2.33;;;4.30;99.90;;;;;;5099378;28;20036;-77
2022/04/08 02:30:18;;;;;;;11.50;2.35;;;4.20;99.90;;;;;;5125393;27;20058;-76
2022/04/08 02:32:43;;;;;;;13.20;1.90;;;4.30;99.90;;;;;;5106284;28;20031;-75
2022/04/08 02:35:10;;;;;;;6.75;1.73;;;4.20;99.90;;;;;;5110829;28;20039;-76
2022/04/08 02:37:35;;;;;;;10.25;2.38;;;4.20;99.90;;;;;;5129027;27;20047;-75
2022/04/08 02:40:01;;;;;;;12.65;2.08;;;4.20;99.90;;;;;;5123105;27;20504;-76
2022/04/08 02:42:30;;;;;;;22.38;2.47;;;4.20;99.90;;;;;;5107351;28;20576;-76
2022/04/08 02:44:56;;;;;;;9.50;2.53;;;4.20;99.90;;;;;;5109105;28;20043;-75
2022/04/08 02:47:22;;;;;;;12.90;2.17;;;4.20;99.90;;;;;;5109562;28;20043;-75
2022/04/08 02:49:48;;;;;;;10.93;1.83;;;4.20;99.90;;;;;;5101411;27;20405;-75
2022/04/08 02:52:13;;;;;;;21.05;4.07;;;4.20;99.90;;;;;;5115057;27;20323;-76
2022/04/08 02:54:39;;;;;;;6.78;2.30;;;4.30;99.90;;;;;;5099556;28;20048;-76
2022/04/08 02:57:04;;;;;;;10.18;2.75;;;4.30;99.90;;;;;;5102659;28;20475;-76
2022/04/08 02:59:30;;;;;;;15.05;2.85;;;4.20;99.90;;;;;;5087338;28;20064;-76
2022/04/08 03:01:56;;;;;;;16.58;2.95;;;4.40;99.90;;;;;;5102189;28;20490;-76
2022/04/08 03:04:22;;;;;;;10.85;2.35;;;4.40;99.90;;;;;;5096130;28;20067;-76
2022/04/08 03:06:48;;;;;;;16.05;2.67;;;4.50;99.90;;;;;;5103609;28;20084;-75
2022/04/08 03:09:13;;;;;;;16.95;3.63;;;4.50;99.90;;;;;;5105224;28;20106;-76
2022/04/08 03:11:39;;;;;;;30.40;3.75;;;4.50;99.90;;;;;;5109270;28;20513;-75
2022/04/08 03:14:04;;;;;;;24.67;4.70;;;4.60;99.90;;;;;;5111780;27;20047;-75
2022/04/08 03:16:30;;;;;;;17.55;4.20;;;4.60;99.90;;;;;;5109999;28;20040;-75
2022/04/08 03:18:56;;;;;;;27.73;3.95;;;4.70;99.90;;;;;;5098237;27;20039;-75
2022/04/08 03:21:22;;;;;;;28.75;3.47;;;4.70;99.90;;;;;;5106632;27;20039;-76
2022/04/08 03:23:48;;;;;;;19.55;3.85;;;4.60;99.90;;;;;;5105973;28;20039;-76
2022/04/08 03:26:14;;;;;;;21.73;4.38;;;4.70;99.90;;;;;;5103130;27;20048;-76
2022/04/08 03:28:39;;;;;;;19.73;3.60;;;4.70;99.90;;;;;;5106831;27;20039;-76
2022/04/08 03:31:05;;;;;;;23.08;4.68;;;4.80;99.90;;;;;;5100231;28;20035;-75
2022/04/08 03:33:31;;;;;;;26.30;4.43;;;4.90;99.90;;;;;;5107328;27;20065;-75
2022/04/08 03:35:56;;;;;;;7.72;2.97;;;4.90;99.90;;;;;;5103747;28;20042;-75
2022/04/08 03:38:22;;;;;;;5.95;1.35;;;4.80;99.90;;;;;;5103064;28;20248;-75
2022/04/08 03:40:48;;;;;;;6.97;0.90;;;3.50;99.90;;;;;;5099435;27;20120;-75
2022/04/08 03:43:14;;;;;;;9.10;0.73;;;3.30;99.90;;;;;;5094153;28;20039;-75
2022/04/08 03:45:40;;;;;;;7.75;0.57;;;3.30;99.90;;;;;;5098757;27;20088;-74
2022/04/08 03:48:07;;;;;;;2.72;0.38;;;3.30;99.90;;;;;;5107691;28;20040;-74
2022/04/08 03:50:33;;;;;;;4.90;0.40;;;3.30;99.90;;;;;;5107153;28;20457;-75
2022/04/08 03:52:58;;;;;;;3.30;0.80;;;3.40;99.90;;;;;;5102618;28;20097;-75
2022/04/08 03:55:24;;;;;;;3.13;0.30;;;3.30;99.90;;;;;;5102865;27;20093;-74
2022/04/08 03:57:50;;;;;;;5.90;0.75;;;3.40;99.90;;;;;;5094539;28;20093;-74
2022/04/08 04:00:16;;;;;;;2.35;1.02;;;3.40;99.90;;;;;;5108473;27;20052;-75
2022/04/08 04:02:41;;;;;;;2.30;0.70;;;3.40;99.90;;;;;;5106706;28;20067;-75
2022/04/08 04:05:07;;;;;;;2.05;0.68;;;3.30;99.90;;;;;;5109131;28;20074;-75
2022/04/08 04:07:33;;;;;;;4.13;1.48;;;3.30;99.90;;;;;;5101340;28;20406;-74
2022/04/08 04:09:59;;;;;;;1.30;0.38;;;3.30;99.90;;;;;;5104326;28;20050;-74
2022/04/08 04:12:28;;;;;;;5.18;1.15;;;3.30;99.90;;;;;;5106707;28;20043;-74
2022/04/08 04:14:55;;;;;;;2.67;0.52;;;3.30;99.90;;;;;;5105786;28;20048;-74
2022/04/08 04:17:21;;;;;;;6.05;1.27;;;3.30;99.90;;;;;;5103176;28;20042;-75
2022/04/08 04:19:47;;;;;;;4.60;1.73;;;3.20;99.90;;;;;;5108508;28;20048;-74
2022/04/08 04:22:13;;;;;;;5.45;1.08;;;3.20;99.90;;;;;;5104024;28;20047;-74
2022/04/08 04:24:39;;;;;;;3.78;0.90;;;3.20;99.90;;;;;;5096170;28;20618;-74
2022/04/08 04:27:04;;;;;;;8.05;1.70;;;3.20;99.90;;;;;;5107179;28;20574;-75
2022/04/08 04:29:31;;;;;;;8.70;1.60;;;3.30;99.90;;;;;;5107436;27;20076;-75
2022/04/08 04:31:59;;;;;;;4.70;1.08;;;3.40;99.90;;;;;;5108278;27;20561;-75
2022/04/08 04:34:25;;;;;;;7.05;2.20;;;3.50;99.90;;;;;;5126233;27;20043;-75
2022/04/08 04:36:51;;;;;;;5.13;1.70;;;3.70;99.90;;;;;;5109051;27;20036;-76
2022/04/08 04:39:16;;;;;;;9.05;2.65;;;3.70;99.90;;;;;;5122384;27;20374;-76
2022/04/08 04:41:42;;;;;;;6.00;1.20;;;3.80;99.90;;;;;;5113068;27;20046;-75
2022/04/08 04:44:08;;;;;;;8.77;1.35;;;3.90;99.90;;;;;;5104992;28;20172;-77
2022/04/08 04:46:33;;;;;;;8.77;2.70;;;3.90;99.90;;;;;;5109817;27;20096;-75
2022/04/08 04:48:59;;;;;;;13.05;1.85;;;3.90;99.90;;;;;;5109168;28;20043;-75
2022/04/08 04:51:26;;;;;;;4.07;1.20;;;3.90;99.90;;;;;;5123598;27;20118;-75
2022/04/08 04:53:52;;;;;;;2.72;1.45;;;3.80;99.90;;;;;;5106087;27;20047;-76
2022/04/08 04:56:18;;;;;;;4.85;1.35;;;3.80;99.90;;;;;;5107985;28;20558;-77
2022/04/08 04:58:43;;;;;;;3.38;1.52;;;3.80;99.90;;;;;;5108105;27;20042;-76
2022/04/08 05:01:09;;;;;;;6.95;1.00;;;3.80;99.90;;;;;;5100783;27;20074;-75
2022/04/08 05:03:34;;;;;;;10.38;1.20;;;3.80;99.90;;;;;;5107561;28;20067;-74
2022/04/08 05:06:00;;;;;;;6.15;2.17;;;3.90;99.90;;;;;;5104472;28;20027;-75
2022/04/08 05:08:25;;;;;;;4.40;1.10;;;3.90;99.90;;;;;;5106738;27;20044;-75
2022/04/08 05:10:51;;;;;;;1.23;1.05;;;3.80;99.90;;;;;;5110732;27;20055;-75
2022/04/08 05:13:16;;;;;;;5.47;0.85;;;3.90;99.90;;;;;;5102205;28;20039;-74
2022/04/08 05:15:45;;;;;;;6.60;2.22;;;3.90;99.90;;;;;;5104882;28;20136;-75
2022/04/08 05:18:11;;;;;;;8.30;1.67;;;4.00;99.90;;;;;;5106295;28;20046;-74
2022/04/08 05:20:36;;;;;;;9.48;1.58;;;4.00;99.90;;;;;;5101935;28;20047;-74
2022/04/08 05:23:02;;;;;;;9.00;2.05;;;4.00;99.90;;;;;;5098209;27;20043;-74
2022/04/08 05:25:28;;;;;;;4.55;1.08;;;3.90;99.90;;;;;;5090198;28;20718;-75
2022/04/08 05:27:54;;;;;;;7.20;2.28;;;3.80;99.90;;;;;;5108601;27;20035;-75
2022/04/08 05:30:20;;;;;;;2.63;1.55;;;3.80;99.90;;;;;;5102534;28;20424;-75
2022/04/08 05:32:46;;;;;;;5.63;1.00;;;3.80;99.90;;;;;;5098835;28;20035;-74
2022/04/08 05:35:17;;;;;;;12.48;1.95;;;3.80;99.90;;;;;;5108977;28;20048;-75
2022/04/08 05:37:45;;;;;;;7.57;1.50;;;4.20;99.90;;;;;;5099932;28;20123;-76
2022/04/08 05:40:19;;;;;;;4.65;1.48;;;4.30;99.90;;;;;;5088907;28;20048;-75
2022/04/08 05:42:46;;;;;;;7.80;2.65;;;4.30;99.90;;;;;;5094937;27;20554;-75
2022/04/08 05:45:13;;;;;;;6.15;1.33;;;4.50;99.90;;;;;;5089929;28;20419;-75
2022/04/08 05:47:39;;;;;;;11.68;2.42;;;4.40;99.90;;;;;;5094967;28;20063;-76
2022/04/08 05:50:06;;;;;;;4.90;2.10;;;4.50;99.90;;;;;;5107543;27;20066;-75
2022/04/08 05:52:32;;;;;;;10.23;2.33;;;4.80;99.90;;;;;;5103128;28;20043;-75
2022/04/08 05:54:57;;;;;;;5.25;1.55;;;4.80;99.90;;;;;;5101024;27;20320;-75
2022/04/08 05:57:23;;;;;;;4.22;1.75;;;5.10;99.90;;;;;;5091517;28;20474;-76
2022/04/08 05:59:50;;;;;;;7.55;1.65;;;5.00;99.90;;;;;;5087616;28;20055;-75
2022/04/08 06:02:17;;;;;;;8.65;2.50;;;4.80;99.90;;;;;;5106288;28;20439;-75
2022/04/08 06:04:42;;;;;;;10.88;2.85;;;4.90;99.90;;;;;;5086867;28;20043;-75
2022/04/08 06:07:08;;;;;;;17.92;2.53;;;5.10;99.90;;;;;;5100811;28;20036;-75
2022/04/08 06:09:34;;;;;;;21.42;3.97;;;5.20;99.90;;;;;;5089360;28;20563;-74
2022/04/08 06:12:00;;;;;;;3.80;1.27;;;5.40;99.90;;;;;;5089552;28;20044;-75
2022/04/08 06:14:29;;;;;;;7.32;2.03;;;5.80;99.90;;;;;;5100696;28;20054;-75
2022/04/08 06:16:55;;;;;;;9.38;1.55;;;6.30;99.90;;;;;;5104713;28;20510;-75
2022/04/08 06:19:21;;;;;;;9.05;1.63;;;5.70;99.90;;;;;;5096219;28;20065;-75
2022/04/08 06:21:46;;;;;;;5.88;1.45;;;5.50;99.90;;;;;;5095654;28;20536;-74
2022/04/08 06:24:12;;;;;;;5.20;1.05;;;5.70;99.90;;;;;;5105617;28;20401;-74
2022/04/08 06:26:38;;;;;;;7.57;2.28;;;5.70;99.90;;;;;;5108872;28;20096;-74
2022/04/08 06:29:04;;;;;;;8.00;0.98;;;5.50;99.90;;;;;;5097123;28;20119;-74
2022/04/08 06:31:31;;;;;;;7.82;1.45;;;5.10;99.90;;;;;;5111389;27;20047;-74
2022/04/08 06:33:58;;;;;;;4.32;1.85;;;5.00;99.90;;;;;;5118420;27;20074;-73
2022/04/08 06:36:25;;;;;;;6.97;1.77;;;4.90;99.90;;;;;;5130500;27;20043;-75
2022/04/08 06:38:50;;;;;;;9.85;1.65;;;5.10;99.90;;;;;;5130254;27;20164;-75
2022/04/08 06:41:16;;;;;;;5.38;1.40;;;5.30;99.90;;;;;;5124097;27;20119;-75
2022/04/08 06:43:41;;;;;;;11.68;2.90;;;5.30;99.90;;;;;;5109210;28;20036;-75
2022/04/08 06:46:07;;;;;;;4.32;1.60;;;5.70;99.90;;;;;;5099440;28;20104;-74
2022/04/08 06:48:33;;;;;;;5.25;1.38;;;6.20;99.90;;;;;;5107498;28;20088;-76
2022/04/08 06:51:00;;;;;;;7.72;2.40;;;6.20;99.90;;;;;;5108333;28;20039;-75
2022/04/08 06:53:26;;;;;;;6.57;1.70;;;6.00;99.90;;;;;;5103750;28;20040;-76
2022/04/08 06:55:52;;;;;;;6.57;1.55;;;5.80;99.90;;;;;;5103767;28;20437;-75
2022/04/08 06:58:19;;;;;;;7.55;1.48;;;5.60;99.90;;;;;;5089212;28;20078;-75
2022/04/08 07:00:45;;;;;;;9.15;2.03;;;5.20;99.90;;;;;;5105017;28;20044;-75
2022/04/08 07:03:11;;;;;;;9.10;1.80;;;5.10;99.90;;;;;;5106671;28;20044;-75
2022/04/08 07:05:37;;;;;;;7.68;3.13;;;5.10;99.90;;;;;;5100740;28;20048;-75
2022/04/08 07:08:02;;;;;;;6.10;2.05;;;6.00;99.90;;;;;;5105654;28;20068;-75
2022/04/08 07:10:28;;;;;;;5.65;1.88;;;5.70;99.90;;;;;;5088131;28;20039;-75
2022/04/08 07:12:54;;;;;;;11.38;2.28;;;5.60;99.90;;;;;;5097483;28;20044;-75
2022/04/08 07:15:19;;;;;;;9.20;2.58;;;5.90;99.90;;;;;;5106650;28;20050;-75
2022/04/08 07:17:45;;;;;;;4.55;1.23;;;6.00;99.90;;;;;;5097520;28;20028;-76
2022/04/08 07:20:13;;;;;;;12.18;2.97;;;6.10;99.90;;;;;;5099372;28;20051;-77
2022/04/08 07:22:41;;;;;;;17.67;1.88;;;6.00;99.90;;;;;;5104768;28;20052;-76
2022/04/08 07:25:07;;;;;;;19.52;4.05;;;5.90;99.90;;;;;;5099281;28;20044;-76
2022/04/08 07:27:46;;;;;;;11.43;3.05;;;5.90;99.90;;;;;;5103305;28;20119;-76
2022/04/08 07:30:13;;;;;;;10.40;1.80;;;5.70;99.90;;;;;;5104014;28;20048;-75
2022/04/08 07:32:39;;;;;;;10.23;2.20;;;5.60;99.90;;;;;;5099592;28;20513;-76
2022/04/08 07:35:05;;;;;;;11.32;2.15;;;5.50;99.90;;;;;;5100605;28;20048;-75
2022/04/08 07:37:32;;;;;;;11.27;2.13;;;5.50;99.90;;;;;;5102751;28;20044;-75
2022/04/08 07:39:58;;;;;;;8.93;2.35;;;5.90;99.90;;;;;;5104002;28;20056;-75
2022/04/08 07:42:24;;;;;;;15.90;3.67;;;6.00;99.90;;;;;;5098507;28;20859;-75
2022/04/08 07:44:50;;;;;;;19.05;3.60;;;6.30;99.90;;;;;;5093623;28;20063;-75
2022/04/08 07:47:18;;;;;;;13.55;2.97;;;6.50;99.90;;;;;;5107333;28;20044;-78
2022/04/08 07:49:43;;;;;;;21.80;2.20;;;6.30;99.90;;;;;;5109851;27;20082;-78
2022/04/08 07:52:09;;;;;;;4.72;1.17;;;6.40;99.90;;;;;;5101345;28;20487;-77
2022/04/08 07:54:35;;;;;;;8.90;2.05;;;6.60;99.90;;;;;;5109964;27;20097;-75
2022/04/08 07:57:00;;;;;;;7.50;2.10;;;6.60;99.90;;;;;;5105981;28;20072;-75
2022/04/08 07:59:26;;;;;;;3.70;1.15;;;6.80;99.90;;;;;;5094647;28;20825;-76
2022/04/08 08:01:52;;;;;;;4.47;1.13;;;6.60;99.90;;;;;;5110453;27;20071;-76
2022/04/08 08:04:17;;;;;;;3.30;1.20;;;6.60;99.90;;;;;;5091640;28;20677;-76
2022/04/08 08:06:43;;;;;;;5.65;1.40;;;6.80;99.90;;;;;;5097234;28;20500;-76
2022/04/08 08:09:09;;;;;;;10.93;2.08;;;6.90;99.90;;;;;;5090662;27;20438;-77
2022/04/08 08:11:35;;;;;;;2.72;0.70;;;7.00;99.90;;;;;;5103000;27;20409;-76
2022/04/08 08:14:00;;;;;;;6.95;2.20;;;7.10;99.90;;;;;;5104231;28;20528;-77
2022/04/08 08:16:26;;;;;;;4.65;0.70;;;7.10;99.90;;;;;;5104273;28;20123;-75
2022/04/08 08:18:56;;;;;;;5.28;1.00;;;7.10;99.90;;;;;;5104700;27;20039;-75
2022/04/08 08:21:22;;;;;;;8.70;0.90;;;7.20;99.90;;;;;;5102815;27;20054;-75
2022/04/08 08:23:48;;;;;;;4.75;0.98;;;7.30;99.90;;;;;;5103675;28;20497;-76
2022/04/08 08:26:14;;;;;;;7.72;1.60;;;7.20;99.90;;;;;;5100381;27;20083;-75
2022/04/08 08:28:39;;;;;;;7.55;1.90;;;7.40;99.90;;;;;;5103413;27;20039;-76
2022/04/08 08:31:05;;;;;;;9.40;2.08;;;7.20;99.90;;;;;;5113976;27;20071;-75
2022/04/08 08:33:30;;;;;;;7.15;2.05;;;7.50;99.90;;;;;;5110540;28;20036;-75
2022/04/08 08:35:56;;;;;;;5.88;1.63;;;7.80;99.90;;;;;;5103657;28;20068;-75
2022/04/08 08:38:22;;;;;;;7.32;1.95;;;7.60;99.90;;;;;;5090194;28;20043;-75
2022/04/08 08:40:49;;;;;;;5.30;1.70;;;7.50;99.90;;;;;;5090156;28;20066;-76
2022/04/08 08:43:19;;;;;;;72.93;3.50;;;7.50;99.90;;;;;;5089599;28;20036;-79
2022/04/08 08:45:48;;;;;;;4.60;0.90;;;7.50;99.90;;;;;;5099860;27;20406;-77
2022/04/08 08:48:15;;;;;;;6.28;1.50;;;7.70;99.90;;;;;;5094273;28;20046;-78
2022/04/08 08:50:48;;;;;;;7.90;1.40;;;8.00;99.90;;;;;;5111148;28;20059;-78
2022/04/08 08:53:19;;;;;;;13.15;2.40;;;8.00;99.90;;;;;;5110593;28;20035;-75
2022/04/08 08:55:45;;;;;;;9.68;1.25;;;8.30;99.90;;;;;;5100296;28;20134;-76
2022/04/08 08:58:12;;;;;;;4.13;0.95;;;8.40;99.90;;;;;;5107855;28;20039;-76
2022/04/08 09:00:38;;;;;;;8.30;1.42;;;8.30;99.90;;;;;;5113876;27;20110;-76
2022/04/08 09:03:04;;;;;;;9.02;2.15;;;8.00;99.90;;;;;;5108837;28;20123;-76
2022/04/08 09:05:29;;;;;;;6.82;1.25;;;8.00;99.90;;;;;;5101521;28;20497;-76
2022/04/08 09:08:00;;;;;;;1.70;1.10;;;8.20;99.90;;;;;;5096525;27;20157;-76
2022/04/08 09:10:31;;;;;;;;;;;8.20;99.90;;;;;;5108643;28;20078;-75
2022/04/08 09:12:57;;;;;;;11.05;1.92;;;8.00;99.90;;;;;;5101059;27;20039;-76
2022/04/08 09:15:23;;;;;;;22.02;2.25;;;7.90;99.90;;;;;;5091998;28;20470;-75
2022/04/08 09:17:50;;;;;;;2.42;1.00;;;8.00;99.90;;;;;;5089371;28;20502;-76
2022/04/08 09:20:16;;;;;;;5.70;1.33;;;7.90;99.90;;;;;;5103753;28;20039;-75
2022/04/08 09:22:43;;;;;;;13.10;1.88;;;7.70;99.90;;;;;;5089057;28;20145;-76
2022/04/08 09:25:12;;;;;;;5.38;0.70;;;7.80;99.90;;;;;;5090411;28;20052;-75
2022/04/08 09:27:39;;;;;;;5.00;1.33;;;8.00;99.90;;;;;;5093880;27;20513;-75
2022/04/08 09:30:07;;;;;;;4.53;1.17;;;8.30;99.90;;;;;;5095986;27;20391;-76
2022/04/08 09:32:33;;;;;;;10.38;1.77;;;8.40;99.90;;;;;;5103356;28;20055;-74
2022/04/08 09:34:59;;;;;;;3.35;1.10;;;8.70;99.90;;;;;;5109221;28;20051;-75
2022/04/08 09:37:24;;;;;;;7.03;2.03;;;8.60;99.90;;;;;;5099221;28;20059;-75
2022/04/08 09:40:03;;;;;;;7.25;1.55;;;8.30;99.90;;;;;;5071860;28;20075;-76
2022/04/08 09:42:43;;;;;;;8.20;1.83;;;8.30;99.90;;;;;;5097118;28;20512;-75
2022/04/08 09:45:10;;;;;;;10.15;2.38;;;8.70;99.90;;;;;;5110218;27;20040;-77
2022/04/08 09:47:36;;;;;;;7.03;1.63;;;8.90;99.90;;;;;;5109258;28;20040;-76
2022/04/08 09:50:02;;;;;;;6.50;1.40;;;8.80;99.90;;;;;;5091436;28;20044;-75
2022/04/08 09:52:29;;;;;;;2.60;1.20;;;8.80;99.90;;;;;;5105582;28;20062;-75
2022/04/08 09:55:03;;;;;;;2.58;1.17;;;8.80;99.90;;;;;;5099004;27;20044;-77
2022/04/08 09:57:35;;;;;;;4.00;2.08;;;8.80;99.90;;;;;;5090314;28;20040;-76
2022/04/08 10:00:01;;;;;;;4.20;1.83;;;8.70;99.90;;;;;;5100690;27;20065;-77
2022/04/08 10:02:29;;;;;;;4.82;1.52;;;8.60;99.90;;;;;;5107197;28;20940;-81
2022/04/08 10:04:59;;;;;;;7.13;1.77;;;8.80;99.90;;;;;;5072091;28;20087;-80
2022/04/08 10:07:26;;;;;;;11.18;2.17;;;9.00;99.90;;;;;;5095519;27;20035;-83
2022/04/08 10:10:15;;;;;;;8.95;1.83;;;9.10;99.90;;;;;;5108129;28;20481;-82
2022/04/08 10:13:05;;;;;;;13.20;1.63;;;9.00;99.90;;;;;;5100908;28;20039;-79
2022/04/08 10:15:37;;;;;;;7.18;1.58;;;9.20;99.90;;;;;;5093784;28;20086;-82
2022/04/08 10:18:04;;;;;;;3.50;1.33;;;8.90;99.90;;;;;;5088057;28;20063;-80
2022/04/08 10:20:31;;;;;;;2.70;0.75;;;8.70;99.90;;;;;;5089994;28;20451;-76
2022/04/08 10:23:07;;;;;;;8.20;1.83;;;8.70;99.90;;;;;;5101237;28;20115;-79
2022/04/08 10:25:36;;;;;;;7.85;1.45;;;8.90;99.90;;;;;;5096456;28;20059;-79
2022/04/08 10:28:02;;;;;;;8.50;2.22;;;8.80;99.90;;;;;;5107733;28;20043;-79
2022/04/08 10:30:28;;;;;;;4.43;0.85;;;9.10;99.90;;;;;;5093596;27;20047;-80
2022/04/08 10:33:01;;;;;;;6.28;1.05;;;9.00;99.90;;;;;;5107765;28;20036;-82
2022/04/08 10:35:28;;;;;;;8.30;1.45;;;9.10;99.90;;;;;;5118201;27;20114;-80
2022/04/08 10:37:54;;;;;;;3.58;0.88;;;9.30;99.90;;;;;;5120497;27;20046;-82
2022/04/08 10:40:20;;;;;;;4.25;1.83;;;8.90;99.90;;;;;;5092724;28;20051;-80
2022/04/08 10:42:56;;;;;;;3.92;0.50;;;8.20;99.90;;;;;;5089845;28;20036;-83
2022/04/08 10:45:22;;;;;;;2.05;0.82;;;7.70;99.90;;;;;;5103926;28;20042;-80
2022/04/08 10:47:48;;;;;;;4.00;0.70;;;7.40;99.90;;;;;;5105847;27;20036;-80
2022/04/08 10:50:27;;;;;;;5.18;1.05;;;7.10;99.90;;;;;;5109692;28;20043;-80
2022/04/08 10:53:04;;;;;;;3.70;1.10;;;7.10;99.90;;;;;;5100651;27;20062;-82
2022/04/08 10:55:30;;;;;;;4.72;0.73;;;6.70;99.90;;;;;;5092398;27;20537;-82
2022/04/08 10:57:59;;;;;;;3.83;0.90;;;6.70;99.90;;;;;;5088386;28;20044;-80
2022/04/08 11:00:25;;;;;;;4.53;1.00;;;6.70;99.90;;;;;;5108992;28;20044;-81
2022/04/08 11:02:54;;;;;;;4.93;1.17;;;7.00;99.90;;;;;;5105485;28;20089;-80
2022/04/08 11:05:23;;;;;;;8.73;2.03;;;7.00;99.90;;;;;;5098274;28;20047;-80
2022/04/08 11:07:51;;;;;;;13.70;2.28;;;7.10;99.90;;;;;;5108173;28;20043;-79
2022/04/08 11:10:19;;;;;;;11.63;2.00;;;7.70;99.90;;;;;;5101497;28;20040;-80
2022/04/08 11:12:49;;;;;;;10.00;2.13;;;8.20;99.90;;;;;;5098477;28;20054;-82
2022/04/08 11:15:16;;;;;;;;;;;8.30;99.90;;;;;;5104382;28;20044;-80
2022/04/08 11:17:42;;;;;;;6.05;1.75;;;8.30;99.90;;;;;;5100378;28;19973;-82
2022/04/08 11:20:13;;;;;;;8.45;2.45;;;8.00;99.90;;;;;;5103649;28;20039;-81
2022/04/08 11:22:44;;;;;;;10.70;1.83;;;8.20;99.90;;;;;;5108631;28;20035;-82
2022/04/08 11:25:17;;;;;;;5.78;1.38;;;8.40;99.90;;;;;;5097859;28;20131;-77
2022/04/08 11:27:43;;;;;;;6.22;0.90;;;8.90;99.90;;;;;;5110955;27;20051;-79
2022/04/08 11:30:09;;;;;;;4.13;0.82;;;9.20;99.90;;;;;;5112927;28;20024;-78
2022/04/08 11:32:35;;;;;;;5.13;1.00;;;9.20;99.90;;;;;;5103068;27;20780;-83
2022/04/08 11:35:13;;;;;;;7.40;0.80;;;9.20;99.90;;;;;;5097526;28;20039;-82
2022/04/08 11:37:39;;;;;;;5.13;0.80;;;9.30;99.90;;;;;;5101300;28;20100;-79
2022/04/08 11:40:06;;;;;;;2.17;0.60;;;9.00;99.90;;;;;;5106212;28;20039;-82
2022/04/08 11:42:32;;;;;;;4.90;1.83;;;9.00;99.90;;;;;;5108361;28;20039;-83
2022/04/08 11:44:59;;;;;;;4.72;0.80;;;8.90;99.90;;;;;;5107087;27;20090;-83
2022/04/08 11:47:32;;;;;;;8.63;1.67;;;8.90;99.90;;;;;;5098433;28;20038;-83
2022/04/08 11:50:09;;;;;;;5.93;0.95;;;8.80;99.90;;;;;;5109706;28;20405;-81
2022/04/08 11:52:37;;;;;;;8.77;2.25;;;9.10;99.90;;;;;;5110544;28;20497;-82
2022/04/08 11:55:08;;;;;;;3.45;0.85;;;9.40;99.90;;;;;;5106715;28;20040;-82
2022/04/08 11:57:35;;;;;;;3.97;1.38;;;9.20;99.90;;;;;;5107223;28;20043;-81
2022/04/08 12:00:05;;;;;;;11.88;2.13;;;8.90;99.90;;;;;;5096340;28;20055;-82
2022/04/08 12:02:31;;;;;;;4.90;0.93;;;8.60;99.90;;;;;;5093425;28;20051;-83
2022/04/08 12:04:57;;;;;;;7.45;1.13;;;8.30;99.90;;;;;;5109248;28;20040;-80
2022/04/08 12:07:25;;;;;;;15.00;2.83;;;8.40;99.90;;;;;;5105765;28;20359;-81
2022/04/08 12:09:55;;;;;;;7.15;2.25;;;8.70;99.90;;;;;;5094572;28;20040;-83
2022/04/08 12:12:30;;;;;;;7.63;1.20;;;8.70;99.90;;;;;;5091550;28;20537;-79
2022/04/08 12:15:09;;;;;;;18.30;1.98;;;9.10;99.90;;;;;;5095507;28;20059;-80
2022/04/08 12:17:43;;;;;;;5.03;1.38;;;9.50;99.90;;;;;;5073108;28;20127;-80
2022/04/08 12:20:17;;;;;;;2.50;0.70;;;9.60;99.90;;;;;;5123345;27;20093;-83
2022/04/08 12:22:50;;;;;;;4.53;1.10;;;9.90;99.90;;;;;;5109571;28;20123;-80
2022/04/08 12:25:18;;;;;;;8.05;1.80;;;9.90;99.90;;;;;;5102339;27;20126;-82
2022/04/08 12:27:51;;;;;;;6.15;1.27;;;9.60;99.90;;;;;;5092759;28;20044;-80
2022/04/08 12:30:16;;;;;;;5.05;0.57;;;9.80;99.90;;;;;;5105538;27;20054;-81
2022/04/08 12:32:43;;;;;;;3.90;1.45;;;9.30;99.90;;;;;;5102362;28;20040;-81
2022/04/08 12:35:11;;;;;;;3.45;0.57;;;9.50;99.90;;;;;;5102186;28;20043;-77
2022/04/08 12:37:37;;;;;;;4.45;1.08;;;9.70;99.90;;;;;;5091577;28;20055;-79
2022/04/08 12:40:04;;;;;;;5.90;1.95;;;9.50;99.90;;;;;;5089038;28;20129;-79
2022/04/08 12:42:35;;;;;;;4.18;1.10;;;9.20;99.90;;;;;;5106844;28;20055;-82
2022/04/08 12:45:03;;;;;;;10.30;1.33;;;9.10;99.90;;;;;;5103306;27;20481;-81
2022/04/08 12:47:29;;;;;;;6.45;1.70;;;9.00;99.90;;;;;;5131247;27;20039;-80
2022/04/08 12:49:54;;;;;;;8.98;2.22;;;9.00;99.90;;;;;;5118739;27;20043;-79
2022/04/08 12:52:20;;;;;;;5.03;1.52;;;9.00;99.90;;;;;;5110322;28;20040;-80
2022/04/08 12:54:45;;;;;;;3.45;0.73;;;8.90;99.90;;;;;;5101180;27;20047;-82